Time;durP1;ratioP1;P1;durP2;ratioP2;P2;SDS_P1;SDS_P2;PMS_P1;PMS_P2;Temp;Humidity;BMP_temperature;BMP_pressure;BME280_temperature;BME280_humidity;BME280_pressure;Samples;Min_cycle;Max_cycle;Signal;HPM_P1;HPM_P2
2022/03/31 00:00:34;;;;;;;17.63;15.73;;;9.40;99.90;;;;;;5976416;23;20196;-78
2022/03/31 00:03:03;;;;;;;19.65;17.58;;;9.30;99.90;;;;;;5976520;23;20211;-78
2022/03/31 00:05:30;;;;;;;20.85;18.75;;;9.30;99.90;;;;;;5976131;23;20224;-78
2022/03/31 00:07:58;;;;;;;19.45;17.35;;;9.10;99.90;;;;;;5976430;23;20651;-78
2022/03/31 00:10:27;;;;;;;18.30;16.30;;;9.10;99.90;;;;;;5975399;23;20228;-78
2022/03/31 00:12:56;;;;;;;18.13;16.23;;;8.90;99.90;;;;;;5967413;23;20195;-78
2022/03/31 00:15:24;;;;;;;18.00;16.10;;;8.80;99.90;;;;;;5974828;23;20278;-78
2022/03/31 00:17:53;;;;;;;18.55;16.63;;;8.60;99.90;;;;;;5978076;23;20219;-78
2022/03/31 00:20:20;;;;;;;19.30;17.00;;;8.50;99.90;;;;;;5975922;23;20691;-78
2022/03/31 00:22:47;;;;;;;19.23;17.10;;;8.40;99.90;;;;;;5977668;24;20215;-78
2022/03/31 00:25:14;;;;;;;19.30;17.30;;;8.30;99.90;;;;;;5974993;23;20203;-78
2022/03/31 00:27:42;;;;;;;18.60;16.65;;;8.10;99.90;;;;;;5969564;23;20235;-78
2022/03/31 00:30:11;;;;;;;19.13;17.23;;;8.10;99.90;;;;;;5976278;23;20709;-77
2022/03/31 00:32:38;;;;;;;18.25;16.35;;;8.10;99.90;;;;;;5977636;24;20195;-78
2022/03/31 00:35:08;;;;;;;18.38;16.48;;;8.10;99.90;;;;;;5976590;23;20238;-78
2022/03/31 00:37:36;;;;;;;16.30;14.70;;;8.10;99.90;;;;;;5977066;23;20190;-77
2022/03/31 00:40:04;;;;;;;15.68;14.07;;;8.10;99.90;;;;;;5976128;23;20199;-77
2022/03/31 00:42:31;;;;;;;16.58;14.88;;;8.10;99.90;;;;;;5974804;23;20282;-77
2022/03/31 00:44:58;;;;;;;15.32;13.75;;;8.00;99.90;;;;;;5976235;23;20201;-78
2022/03/31 00:47:25;;;;;;;16.60;14.90;;;7.90;99.90;;;;;;5976924;23;20201;-77
2022/03/31 00:49:52;;;;;;;15.02;13.52;;;7.90;99.90;;;;;;5975258;23;20195;-78
2022/03/31 00:52:20;;;;;;;15.93;14.32;;;7.90;99.90;;;;;;5974581;23;20279;-78
2022/03/31 00:54:47;;;;;;;14.77;13.35;;;7.90;99.90;;;;;;5976191;23;20278;-78
2022/03/31 00:57:15;;;;;;;14.52;13.13;;;8.00;99.90;;;;;;5977208;23;20194;-78
2022/03/31 00:59:42;;;;;;;14.50;13.00;;;8.00;99.90;;;;;;5976925;23;20196;-78
2022/03/31 01:02:09;;;;;;;13.32;12.02;;;8.00;99.90;;;;;;5976523;23;20265;-78
2022/03/31 01:04:37;;;;;;;14.27;12.98;;;7.90;99.90;;;;;;5975632;23;20238;-77
2022/03/31 01:07:04;;;;;;;14.80;13.30;;;7.90;99.90;;;;;;5976488;23;20237;-77
2022/03/31 01:09:33;;;;;;;14.48;13.00;;;7.90;99.90;;;;;;5978009;23;20274;-77
2022/03/31 01:12:02;;;;;;;14.02;12.63;;;7.80;99.90;;;;;;5976043;23;20650;-77
2022/03/31 01:14:32;;;;;;;15.10;13.60;;;7.80;99.90;;;;;;5974804;23;20674;-78
2022/03/31 01:16:59;;;;;;;14.45;12.95;;;7.80;99.90;;;;;;5977137;24;20391;-78
2022/03/31 01:19:26;;;;;;;14.63;13.23;;;7.90;99.90;;;;;;5975191;23;20215;-78
2022/03/31 01:21:53;;;;;;;14.27;12.88;;;7.90;99.90;;;;;;5977401;24;20582;-78
2022/03/31 01:24:21;;;;;;;15.07;13.57;;;8.00;99.90;;;;;;5976357;23;20223;-78
2022/03/31 01:26:49;;;;;;;15.10;13.80;;;8.00;99.90;;;;;;5974946;23;20234;-78
2022/03/31 01:29:16;;;;;;;14.88;13.48;;;7.90;99.90;;;;;;5976484;23;20702;-79
2022/03/31 01:31:43;;;;;;;13.65;12.45;;;7.90;99.90;;;;;;5976480;23;20191;-78
2022/03/31 01:34:10;;;;;;;15.43;14.02;;;7.90;99.90;;;;;;5972774;23;20631;-78
2022/03/31 01:36:37;;;;;;;14.93;13.43;;;7.90;99.90;;;;;;5977215;24;20256;-78
2022/03/31 01:39:05;;;;;;;14.55;13.15;;;7.90;99.90;;;;;;5974912;23;20217;-79
2022/03/31 01:41:33;;;;;;;14.50;13.10;;;7.90;99.90;;;;;;5974634;23;21033;-78
2022/03/31 01:44:00;;;;;;;15.43;14.02;;;7.80;99.90;;;;;;5973056;23;20222;-79
2022/03/31 01:46:29;;;;;;;14.60;13.10;;;7.80;99.90;;;;;;5975027;23;20237;-79
2022/03/31 01:48:56;;;;;;;14.60;13.20;;;7.70;99.90;;;;;;5976513;23;20607;-79
2022/03/31 01:51:23;;;;;;;16.27;14.65;;;7.60;99.90;;;;;;5976086;23;20278;-79
2022/03/31 01:53:50;;;;;;;14.48;13.02;;;7.60;99.90;;;;;;5976654;23;20269;-79
2022/03/31 01:56:17;;;;;;;15.45;14.00;;;7.60;99.90;;;;;;5977052;24;20270;-79
2022/03/31 01:58:46;;;;;;;15.25;13.75;;;7.70;99.90;;;;;;5974403;23;20245;-78
2022/03/31 02:01:13;;;;;;;14.45;13.07;;;7.70;99.90;;;;;;5975622;23;20194;-79
2022/03/31 02:03:40;;;;;;;14.38;12.98;;;7.70;99.90;;;;;;5974021;23;20215;-79
2022/03/31 02:06:07;;;;;;;14.38;12.98;;;7.80;99.90;;;;;;5976347;23;20195;-79
2022/03/31 02:08:34;;;;;;;13.70;12.30;;;7.90;99.90;;;;;;5975266;23;20297;-79
2022/03/31 02:11:02;;;;;;;15.32;13.90;;;7.90;99.90;;;;;;5977001;24;20218;-79
2022/03/31 02:13:29;;;;;;;16.10;14.60;;;7.80;99.90;;;;;;5968437;23;20192;-79
2022/03/31 02:15:57;;;;;;;16.15;14.65;;;7.80;99.90;;;;;;5974881;23;20192;-79
2022/03/31 02:18:25;;;;;;;15.93;14.38;;;7.80;99.90;;;;;;5977047;23;20206;-79
2022/03/31 02:20:52;;;;;;;16.25;14.65;;;7.80;99.90;;;;;;5976441;23;20191;-79
2022/03/31 02:23:19;;;;;;;15.80;14.30;;;7.80;99.90;;;;;;5975863;24;20219;-78
2022/03/31 02:25:45;;;;;;;16.52;14.85;;;7.80;99.90;;;;;;5975245;23;20198;-78
2022/03/31 02:28:13;;;;;;;16.63;15.02;;;7.80;99.90;;;;;;5975100;23;20218;-78
2022/03/31 02:30:41;;;;;;;16.67;15.07;;;7.70;99.90;;;;;;5976811;23;20638;-79
2022/03/31 02:33:09;;;;;;;17.70;15.95;;;7.80;99.90;;;;;;5978520;24;20196;-78
2022/03/31 02:35:36;;;;;;;15.80;14.30;;;7.80;99.90;;;;;;5976906;23;20227;-79
2022/03/31 02:38:03;;;;;;;15.32;13.93;;;7.80;99.90;;;;;;5975361;23;20217;-79
2022/03/31 02:40:30;;;;;;;16.50;15.00;;;7.80;99.90;;;;;;5976404;24;20197;-78
2022/03/31 02:42:58;;;;;;;16.40;14.90;;;7.80;99.90;;;;;;5976139;23;20200;-79
2022/03/31 02:45:25;;;;;;;16.58;15.02;;;7.70;99.90;;;;;;5976559;23;20222;-79
2022/03/31 02:47:52;;;;;;;15.57;13.98;;;7.70;99.90;;;;;;5976410;23;20302;-79
2022/03/31 02:50:20;;;;;;;16.02;14.52;;;7.70;99.90;;;;;;5977391;23;20191;-79
2022/03/31 02:55:32;;;;;;;16.15;14.55;;;7.60;99.90;;;;;;5976880;23;20611;-79
2022/03/31 02:58:01;;;;;;;16.65;15.10;;;7.60;99.90;;;;;;5963082;24;20210;-79
2022/03/31 03:00:30;;;;;;;16.60;15.10;;;7.60;99.90;;;;;;5979543;23;20216;-79
2022/03/31 03:02:58;;;;;;;16.70;15.10;;;7.60;99.90;;;;;;5976457;23;20201;-79
2022/03/31 03:05:26;;;;;;;16.35;14.85;;;7.50;99.90;;;;;;5976772;23;20302;-78
2022/03/31 03:07:53;;;;;;;18.05;16.35;;;7.50;99.90;;;;;;5978746;23;20290;-78
2022/03/31 03:10:20;;;;;;;17.35;15.85;;;7.40;99.90;;;;;;5976708;23;20274;-79
2022/03/31 03:12:49;;;;;;;17.25;15.65;;;7.40;99.90;;;;;;5976452;24;20587;-79
2022/03/31 03:15:16;;;;;;;16.38;14.88;;;7.40;99.90;;;;;;5972295;23;20285;-79
2022/03/31 03:17:45;;;;;;;17.73;16.13;;;7.40;99.90;;;;;;5974130;23;20219;-78
2022/03/31 03:20:16;;;;;;;16.00;14.50;;;7.40;99.90;;;;;;5977332;23;20202;-78
2022/03/31 03:22:46;;;;;;;16.20;14.60;;;7.40;99.90;;;;;;5977896;23;20262;-78
2022/03/31 03:25:15;;;;;;;16.42;14.82;;;7.40;99.90;;;;;;5974577;23;20656;-79
2022/03/31 03:27:43;;;;;;;17.27;15.63;;;7.40;99.90;;;;;;5974844;23;20217;-78
2022/03/31 03:30:11;;;;;;;16.77;15.23;;;7.40;99.90;;;;;;5976486;23;20197;-79
2022/03/31 03:32:38;;;;;;;15.30;13.88;;;7.40;99.90;;;;;;5977601;23;20191;-78
2022/03/31 03:35:07;;;;;;;16.60;15.10;;;7.40;99.90;;;;;;5970850;23;20229;-78
2022/03/31 03:37:34;;;;;;;17.30;15.70;;;7.40;99.90;;;;;;5972087;23;20273;-81
2022/03/31 03:40:04;;;;;;;17.10;15.40;;;7.50;99.90;;;;;;5974408;23;20195;-77
2022/03/31 03:42:31;;;;;;;18.48;16.77;;;7.40;99.90;;;;;;5978011;24;20187;-81
2022/03/31 03:44:59;;;;;;;16.52;15.02;;;7.40;99.90;;;;;;5976882;24;20330;-80
2022/03/31 03:47:27;;;;;;;16.63;14.93;;;7.40;99.90;;;;;;5977804;23;20218;-78
2022/03/31 03:49:54;;;;;;;16.15;14.68;;;7.40;99.90;;;;;;5975481;23;20206;-80
2022/03/31 03:52:21;;;;;;;17.30;15.70;;;7.30;99.90;;;;;;5975888;24;20202;-78
2022/03/31 03:54:48;;;;;;;18.55;16.75;;;7.30;99.90;;;;;;5976414;23;20202;-78
2022/03/31 03:57:16;;;;;;;17.48;15.88;;;7.30;99.90;;;;;;5976653;23;20211;-79
2022/03/31 03:59:43;;;;;;;17.08;15.48;;;7.30;99.90;;;;;;5973637;23;20267;-76
2022/03/31 04:02:10;;;;;;;17.52;15.82;;;7.30;99.90;;;;;;5976624;23;20195;-78
2022/03/31 04:04:37;;;;;;;17.98;16.30;;;7.30;99.90;;;;;;5966865;23;20253;-80
2022/03/31 04:07:04;;;;;;;17.33;15.82;;;7.30;99.90;;;;;;5976465;23;20281;-78
2022/03/31 04:09:31;;;;;;;18.15;16.42;;;7.30;99.90;;;;;;5977175;23;20193;-78
2022/03/31 04:11:58;;;;;;;16.20;14.80;;;7.30;99.90;;;;;;5973198;24;20195;-78
2022/03/31 04:14:27;;;;;;;18.42;16.67;;;7.30;99.90;;;;;;5974721;23;20191;-78
2022/03/31 04:16:55;;;;;;;17.63;15.93;;;7.30;99.90;;;;;;5973840;23;20659;-78
2022/03/31 04:19:22;;;;;;;17.85;16.05;;;7.30;99.90;;;;;;5975402;23;20199;-78
2022/03/31 04:21:49;;;;;;;17.08;15.48;;;7.30;99.90;;;;;;5971030;23;20278;-78
2022/03/31 04:24:16;;;;;;;16.90;15.32;;;7.30;99.90;;;;;;5964741;23;20222;-79
2022/03/31 04:26:43;;;;;;;17.60;15.93;;;7.30;99.90;;;;;;5962079;23;20284;-78
2022/03/31 04:31:47;;;;;;;16.60;15.02;;;7.30;99.90;;;;;;5993684;23;20234;-80
2022/03/31 04:34:15;;;;;;;16.75;15.05;;;7.30;99.90;;;;;;6002847;23;20194;-80
2022/03/31 04:36:42;;;;;;;17.38;15.68;;;7.30;99.90;;;;;;6000583;23;20350;-80
2022/03/31 04:39:09;;;;;;;17.95;16.35;;;7.30;99.90;;;;;;5981442;23;20559;-79
2022/03/31 04:41:36;;;;;;;17.88;16.17;;;7.30;99.90;;;;;;5989474;23;20196;-79
2022/03/31 04:44:03;;;;;;;19.77;17.85;;;7.30;99.90;;;;;;5990997;23;20273;-79
2022/03/31 04:46:30;;;;;;;18.13;16.42;;;7.30;99.90;;;;;;5992769;23;20178;-79
2022/03/31 04:48:58;;;;;;;20.30;18.40;;;7.20;99.90;;;;;;5985670;23;20265;-80
2022/03/31 04:51:25;;;;;;;29.70;27.33;;;7.30;99.90;;;;;;5994224;23;20645;-79
2022/03/31 04:53:52;;;;;;;22.73;20.73;;;7.20;99.90;;;;;;5991603;23;20265;-78
2022/03/31 04:56:19;;;;;;;22.00;20.08;;;7.30;99.90;;;;;;5998094;23;20297;-79
2022/03/31 04:58:46;;;;;;;20.60;18.80;;;7.30;99.90;;;;;;5990958;23;20213;-80
2022/03/31 05:01:13;;;;;;;19.27;17.67;;;7.30;99.90;;;;;;5997094;23;20189;-79
2022/03/31 05:03:40;;;;;;;17.63;15.93;;;7.30;99.90;;;;;;5992924;23;20182;-79
2022/03/31 05:06:09;;;;;;;17.88;16.27;;;7.30;99.90;;;;;;5998731;23;20205;-79
2022/03/31 05:08:36;;;;;;;18.00;16.40;;;7.30;99.90;;;;;;6004349;23;20210;-79
2022/03/31 05:11:03;;;;;;;18.88;17.10;;;7.30;99.90;;;;;;5998886;23;20178;-79
2022/03/31 05:13:30;;;;;;;16.60;15.10;;;7.20;99.90;;;;;;5990334;23;20191;-79
2022/03/31 05:15:57;;;;;;;18.27;16.52;;;7.10;99.90;;;;;;5996428;23;20265;-79
2022/03/31 05:18:24;;;;;;;17.65;15.80;;;7.10;99.90;;;;;;5990875;23;20213;-80
2022/03/31 05:20:51;;;;;;;16.65;15.15;;;7.10;99.90;;;;;;6002764;23;20186;-79
2022/03/31 05:23:20;;;;;;;18.27;16.48;;;7.10;99.90;;;;;;6000789;23;20186;-79
2022/03/31 05:25:47;;;;;;;17.67;15.98;;;7.00;99.90;;;;;;6001942;23;20724;-79
2022/03/31 05:28:15;;;;;;;17.15;15.55;;;7.00;99.90;;;;;;6001350;23;20202;-79
2022/03/31 05:30:43;;;;;;;18.35;16.55;;;6.90;99.90;;;;;;6000101;23;20194;-79
2022/03/31 05:33:11;;;;;;;18.20;16.50;;;6.90;99.90;;;;;;5996671;23;20270;-79
2022/03/31 05:35:38;;;;;;;17.65;16.02;;;6.90;99.90;;;;;;5999029;23;20190;-79
2022/03/31 05:38:06;;;;;;;18.83;17.00;;;7.00;99.90;;;;;;6000904;23;20285;-79
2022/03/31 05:40:35;;;;;;;18.17;16.48;;;7.00;99.90;;;;;;6000056;23;20182;-79
2022/03/31 05:43:02;;;;;;;17.65;15.95;;;7.00;99.90;;;;;;5994340;23;20203;-79
2022/03/31 05:45:29;;;;;;;17.33;15.82;;;7.00;99.90;;;;;;5999158;23;20224;-79
2022/03/31 05:47:56;;;;;;;18.45;16.75;;;7.00;99.90;;;;;;5998367;23;20203;-79
2022/03/31 05:50:23;;;;;;;17.48;15.80;;;7.00;99.90;;;;;;6000540;23;20520;-82
2022/03/31 05:52:50;;;;;;;16.98;15.40;;;7.00;99.90;;;;;;5993165;23;20193;-78
2022/03/31 05:55:19;;;;;;;18.73;16.83;;;7.00;99.90;;;;;;5988595;23;20248;-79
2022/03/31 05:57:49;;;;;;;20.15;18.08;;;7.00;99.90;;;;;;5996853;23;20224;-79
2022/03/31 06:00:18;;;;;;;19.42;17.52;;;7.00;99.90;;;;;;5993892;23;20205;-79
2022/03/31 06:02:46;;;;;;;18.73;16.92;;;7.00;99.90;;;;;;6002157;23;20190;-79
2022/03/31 06:05:14;;;;;;;17.92;16.05;;;7.00;99.90;;;;;;6001007;23;20221;-79
2022/03/31 06:07:41;;;;;;;27.95;24.05;;;7.10;99.90;;;;;;5991958;23;20302;-79
2022/03/31 06:10:09;;;;;;;20.42;18.40;;;7.10;99.90;;;;;;5993292;23;20645;-78
2022/03/31 06:12:36;;;;;;;18.67;16.95;;;7.10;99.90;;;;;;5999769;23;20190;-79
2022/03/31 06:15:06;;;;;;;18.17;16.27;;;7.10;99.90;;;;;;6001753;23;20273;-79
2022/03/31 06:17:33;;;;;;;21.08;19.08;;;7.10;99.90;;;;;;5993337;23;20228;-79
2022/03/31 06:20:00;;;;;;;18.92;17.10;;;7.20;99.90;;;;;;6000373;23;20637;-79
2022/03/31 06:22:28;;;;;;;20.20;18.23;;;7.10;99.90;;;;;;6000560;23;20183;-79
2022/03/31 06:24:55;;;;;;;19.65;17.75;;;7.10;99.90;;;;;;5991393;23;20297;-78
2022/03/31 06:27:22;;;;;;;18.25;16.55;;;7.20;99.90;;;;;;6002588;23;20253;-79
2022/03/31 06:29:49;;;;;;;19.27;17.38;;;7.20;99.90;;;;;;6001451;23;20202;-79
2022/03/31 06:32:18;;;;;;;19.55;17.77;;;7.30;99.90;;;;;;6000309;23;20333;-79
2022/03/31 06:34:46;;;;;;;18.15;16.50;;;7.30;99.90;;;;;;5994939;23;20790;-78
2022/03/31 06:37:13;;;;;;;19.27;17.50;;;7.40;99.90;;;;;;5983591;23;20645;-79
2022/03/31 06:39:40;;;;;;;19.42;17.42;;;7.40;99.90;;;;;;5994474;23;20698;-79
2022/03/31 06:42:08;;;;;;;19.40;17.60;;;7.30;99.90;;;;;;5993853;23;20202;-79
2022/03/31 06:44:35;;;;;;;18.85;17.05;;;7.30;99.90;;;;;;5983486;23;20209;-79
2022/03/31 06:47:02;;;;;;;18.58;16.60;;;7.20;99.90;;;;;;5999465;23;20210;-79
2022/03/31 06:49:30;;;;;;;18.35;16.42;;;7.20;99.90;;;;;;5993442;23;20213;-78
2022/03/31 06:51:57;;;;;;;19.02;17.13;;;7.10;99.90;;;;;;5990385;23;20248;-79
2022/03/31 06:54:24;;;;;;;18.23;16.52;;;7.20;99.90;;;;;;5993661;23;20213;-79
2022/03/31 06:56:51;;;;;;;18.75;16.85;;;7.20;99.90;;;;;;5999291;23;20221;-79
2022/03/31 06:59:20;;;;;;;19.63;17.65;;;7.20;99.90;;;;;;5989869;23;20541;-79
2022/03/31 07:01:47;;;;;;;18.73;16.83;;;7.20;99.90;;;;;;5993158;23;20598;-79
2022/03/31 07:04:15;;;;;;;19.98;17.98;;;7.20;99.90;;;;;;6000015;23;20195;-79
2022/03/31 07:06:43;;;;;;;20.25;18.15;;;7.10;99.90;;;;;;5995091;23;20265;-79
2022/03/31 07:09:10;;;;;;;19.73;17.63;;;6.90;99.90;;;;;;5994955;23;20217;-79
2022/03/31 07:11:37;;;;;;;19.23;17.33;;;6.90;99.90;;;;;;5988528;23;20273;-79
2022/03/31 07:14:05;;;;;;;18.58;16.73;;;7.00;99.90;;;;;;5999572;23;20183;-79
2022/03/31 07:16:33;;;;;;;17.90;16.20;;;7.10;99.90;;;;;;5988442;23;20213;-79
2022/03/31 07:19:01;;;;;;;19.42;17.45;;;7.30;99.90;;;;;;6000685;23;20190;-79
2022/03/31 07:21:28;;;;;;;19.48;17.48;;;7.50;99.90;;;;;;5995995;23;20194;-79
2022/03/31 07:23:57;;;;;;;19.08;17.23;;;7.60;99.90;;;;;;5999490;23;20186;-79
2022/03/31 07:26:24;;;;;;;18.55;16.48;;;7.70;99.90;;;;;;5996338;23;20245;-79
2022/03/31 07:28:51;;;;;;;18.92;16.95;;;7.80;99.90;;;;;;6002521;23;20202;-79
2022/03/31 07:31:19;;;;;;;18.80;16.90;;;7.90;99.90;;;;;;5986462;23;20194;-79
2022/03/31 07:33:46;;;;;;;19.50;17.63;;;8.00;99.90;;;;;;5991042;23;20183;-79
2022/03/31 07:36:13;;;;;;;19.38;17.40;;;8.10;99.90;;;;;;6002369;23;20277;-79
2022/03/31 07:38:40;;;;;;;18.38;16.58;;;8.20;99.90;;;;;;6002005;23;20269;-79
2022/03/31 07:41:09;;;;;;;19.48;17.58;;;8.30;99.90;;;;;;5995100;23;20233;-80
2022/03/31 07:43:36;;;;;;;19.15;17.00;;;8.30;99.90;;;;;;5978536;23;20191;-79
2022/03/31 07:46:03;;;;;;;17.05;15.40;;;8.40;99.90;;;;;;5990389;23;20218;-79
2022/03/31 07:48:30;;;;;;;17.40;15.70;;;8.40;99.90;;;;;;5993667;23;20222;-79
2022/03/31 07:50:58;;;;;;;16.85;15.25;;;8.50;99.90;;;;;;5986938;23;20205;-79
2022/03/31 07:53:26;;;;;;;17.70;16.00;;;8.60;99.90;;;;;;5992524;23;20194;-80
2022/03/31 07:55:54;;;;;;;18.42;16.63;;;8.60;99.90;;;;;;6002129;23;20196;-79
2022/03/31 07:58:22;;;;;;;18.73;16.83;;;8.70;99.90;;;;;;6001983;23;20667;-79
2022/03/31 08:00:50;;;;;;;17.30;15.68;;;8.80;99.90;;;;;;5999251;23;20199;-79
2022/03/31 08:03:19;;;;;;;20.48;18.48;;;8.80;99.90;;;;;;5995415;23;20201;-79
2022/03/31 08:05:46;;;;;;;18.63;16.83;;;8.90;99.90;;;;;;5999713;23;20208;-79
2022/03/31 08:08:13;;;;;;;19.50;17.60;;;9.00;99.90;;;;;;6000056;23;20267;-80
2022/03/31 08:10:41;;;;;;;19.63;17.73;;;9.10;99.90;;;;;;5988126;23;20212;-79
2022/03/31 08:13:09;;;;;;;18.75;16.95;;;9.20;99.90;;;;;;6000588;23;20193;-79
2022/03/31 08:15:38;;;;;;;18.80;16.95;;;9.20;99.90;;;;;;5994828;23;20197;-80
2022/03/31 08:18:06;;;;;;;18.05;16.27;;;9.30;99.90;;;;;;5990632;23;20230;-80
2022/03/31 08:20:33;;;;;;;19.23;17.35;;;9.30;99.90;;;;;;5998719;23;20237;-79
2022/03/31 08:23:00;;;;;;;17.52;15.85;;;9.40;99.90;;;;;;6002907;23;20219;-79
2022/03/31 08:25:27;;;;;;;18.60;16.80;;;9.40;99.90;;;;;;5996479;23;20211;-79
2022/03/31 08:27:54;;;;;;;18.80;17.00;;;9.40;99.90;;;;;;5999072;23;20212;-79
2022/03/31 08:30:23;;;;;;;19.08;17.17;;;9.50;99.90;;;;;;5999528;23;20559;-79
2022/03/31 08:32:52;;;;;;;17.17;15.63;;;9.60;99.90;;;;;;6004455;23;20191;-79
2022/03/31 08:35:20;;;;;;;17.98;16.15;;;9.60;99.90;;;;;;5997803;23;20246;-79
2022/03/31 08:37:47;;;;;;;18.48;16.65;;;9.70;99.90;;;;;;5989908;23;20224;-79
2022/03/31 08:40:15;;;;;;;18.80;17.05;;;9.70;99.90;;;;;;6003085;23;20190;-78
2022/03/31 08:42:43;;;;;;;19.30;17.50;;;9.70;99.90;;;;;;6000880;23;20247;-79
2022/03/31 08:45:16;;;;;;;18.23;16.42;;;9.80;99.90;;;;;;5990929;23;20199;-79
2022/03/31 08:47:45;;;;;;;18.10;16.30;;;9.70;99.90;;;;;;5986156;23;20215;-81
2022/03/31 08:50:13;;;;;;;19.30;17.50;;;9.40;99.90;;;;;;6003040;23;20801;-78
2022/03/31 08:52:41;;;;;;;18.45;16.75;;;9.30;99.90;;;;;;5996826;23;20279;-80
2022/03/31 08:55:11;;;;;;;19.17;17.38;;;9.30;99.90;;;;;;6002053;23;20278;-79
2022/03/31 08:57:40;;;;;;;19.77;17.85;;;9.40;99.90;;;;;;5995652;23;21338;-79
2022/03/31 09:00:09;;;;;;;18.58;16.88;;;9.50;99.90;;;;;;6000504;23;20195;-79
2022/03/31 09:02:37;;;;;;;18.63;16.77;;;9.60;99.90;;;;;;5988936;23;20191;-80
2022/03/31 09:05:06;;;;;;;18.60;16.70;;;9.70;99.90;;;;;;5996549;23;20211;-80
2022/03/31 09:07:34;;;;;;;18.30;16.50;;;9.80;99.90;;;;;;6000269;23;20220;-80
2022/03/31 09:10:02;;;;;;;18.83;17.13;;;9.80;99.90;;;;;;6001529;23;20192;-80
2022/03/31 09:12:38;;;;;;;18.52;16.77;;;9.90;99.90;;;;;;5995589;23;20203;-80
2022/03/31 09:15:10;;;;;;;19.40;17.48;;;9.90;99.90;;;;;;5999493;23;20193;-80
2022/03/31 09:17:37;;;;;;;19.00;17.20;;;9.80;99.90;;;;;;6002797;23;20217;-81
2022/03/31 09:20:05;;;;;;;18.88;17.08;;;9.90;99.90;;;;;;5995766;23;20190;-80
2022/03/31 09:22:45;;;;;;;19.02;17.23;;;9.90;99.90;;;;;;6002249;23;20189;-79
2022/03/31 09:25:12;;;;;;;18.25;16.52;;;10.00;99.90;;;;;;5983592;23;20562;-79
2022/03/31 09:27:39;;;;;;;18.23;16.52;;;10.10;99.90;;;;;;6003824;23;20232;-80
2022/03/31 09:30:08;;;;;;;17.67;15.98;;;10.20;99.90;;;;;;6003471;23;20232;-80
2022/03/31 09:32:34;;;;;;;18.70;16.80;;;10.20;99.90;;;;;;5993372;23;20220;-79
2022/03/31 09:35:07;;;;;;;19.30;17.13;;;10.30;99.90;;;;;;6002776;23;20656;-79
2022/03/31 09:37:34;;;;;;;19.20;17.38;;;10.40;99.90;;;;;;6000691;23;20220;-80
2022/03/31 09:40:02;;;;;;;19.25;17.48;;;10.50;99.90;;;;;;5989487;23;20261;-79
2022/03/31 09:42:29;;;;;;;18.90;17.00;;;10.60;99.90;;;;;;6001947;23;20194;-80
2022/03/31 09:44:57;;;;;;;17.83;16.13;;;10.80;99.90;;;;;;6003930;23;20197;-79
2022/03/31 09:47:26;;;;;;;18.20;16.50;;;10.90;99.90;;;;;;5991763;23;20299;-80
2022/03/31 09:49:54;;;;;;;17.60;15.90;;;11.00;99.90;;;;;;5997230;23;20194;-81
2022/03/31 09:52:22;;;;;;;18.73;17.02;;;11.10;99.90;;;;;;5992805;23;20579;-81
2022/03/31 09:54:51;;;;;;;17.80;16.23;;;11.30;99.90;;;;;;6002749;23;20622;-80
2022/03/31 09:57:22;;;;;;;16.65;15.15;;;11.60;99.90;;;;;;5996753;23;20323;-80
2022/03/31 09:59:53;;;;;;;16.27;14.77;;;12.20;99.90;;;;;;5990999;23;20186;-80
2022/03/31 10:02:21;;;;;;;16.35;14.75;;;12.70;99.90;;;;;;5998606;23;20195;-80
2022/03/31 10:04:48;;;;;;;16.83;15.32;;;13.10;99.90;;;;;;6000190;23;20186;-80
2022/03/31 10:07:16;;;;;;;16.08;14.60;;;13.30;99.90;;;;;;5996910;23;20278;-80
2022/03/31 10:09:44;;;;;;;16.80;15.20;;;13.40;99.90;;;;;;5994808;23;20186;-80
2022/03/31 10:12:17;;;;;;;15.77;14.38;;;13.50;99.90;;;;;;6003194;23;20188;-80
2022/03/31 10:14:59;;;;;;;16.55;15.05;;;13.70;99.90;;;;;;6000449;23;20233;-80
2022/03/31 10:17:28;;;;;;;16.55;15.05;;;13.70;99.90;;;;;;6002551;23;20639;-80
2022/03/31 10:20:06;;;;;;;16.60;15.20;;;13.70;99.90;;;;;;5999089;23;20269;-81
2022/03/31 10:25:17;;;;;;;16.30;14.80;;;13.60;99.90;;;;;;5996842;23;20194;-80
2022/03/31 10:27:46;;;;;;;16.38;14.98;;;13.60;99.90;;;;;;6000459;23;20519;-80
2022/03/31 10:30:17;;;;;;;17.35;15.75;;;13.70;99.90;;;;;;6000986;23;20201;-80
2022/03/31 10:32:52;;;;;;;16.58;15.18;;;13.70;99.90;;;;;;5984244;23;20215;-79
2022/03/31 10:35:24;;;;;;;15.32;13.95;;;13.70;99.90;;;;;;6002680;23;20186;-79
2022/03/31 10:37:51;;;;;;;14.65;13.40;;;13.70;99.90;;;;;;5988829;23;20987;-80
2022/03/31 10:40:31;;;;;;;16.40;15.00;;;13.80;99.90;;;;;;5989689;23;20649;-80
2022/03/31 10:42:58;;;;;;;14.83;13.53;;;14.00;99.90;;;;;;6001018;23;20480;-81
2022/03/31 10:45:37;;;;;;;15.87;14.50;;;14.10;99.90;;;;;;5991623;23;21255;-81
2022/03/31 10:48:18;;;;;;;16.20;14.80;;;14.30;99.90;;;;;;5992698;23;20477;-80
2022/03/31 10:50:46;;;;;;;16.37;14.87;;;14.20;99.90;;;;;;5989843;23;20492;-80
2022/03/31 10:53:14;;;;;;;16.65;15.05;;;14.20;99.90;;;;;;5994316;23;20450;-81
2022/03/31 10:55:48;;;;;;;15.23;13.90;;;14.20;99.90;;;;;;5998181;23;20260;-80
2022/03/31 10:58:25;;;;;;;16.58;15.15;;;14.20;99.90;;;;;;5986693;23;20505;-80
2022/03/31 11:00:54;;;;;;;15.50;14.10;;;14.00;99.90;;;;;;5997925;23;20182;-80
2022/03/31 11:03:22;;;;;;;16.65;14.82;;;13.90;99.90;;;;;;6001918;23;20213;-80
2022/03/31 11:05:50;;;;;;;16.30;14.80;;;13.80;99.90;;;;;;5985882;23;20693;-80
2022/03/31 11:08:18;;;;;;;16.67;15.18;;;13.70;99.90;;;;;;5991281;23;20281;-80
2022/03/31 11:10:48;;;;;;;16.10;14.63;;;13.60;99.90;;;;;;5985856;23;20277;-80
2022/03/31 11:13:18;;;;;;;15.50;14.10;;;13.50;99.90;;;;;;5991135;23;20190;-79
2022/03/31 11:15:50;;;;;;;16.10;14.60;;;13.60;99.90;;;;;;5999648;23;20205;-79
2022/03/31 11:18:22;;;;;;;16.10;14.55;;;13.60;99.90;;;;;;5990126;23;20632;-79
2022/03/31 11:20:51;;;;;;;15.05;13.63;;;13.70;99.90;;;;;;6004102;23;20219;-79
2022/03/31 11:23:18;;;;;;;17.58;15.70;;;13.60;99.90;;;;;;6002023;23;20190;-79
2022/03/31 11:25:45;;;;;;;16.10;14.60;;;13.60;99.90;;;;;;5997063;23;20798;-80
2022/03/31 11:28:13;;;;;;;16.10;14.70;;;13.60;99.90;;;;;;6003613;23;20206;-79
2022/03/31 11:30:41;;;;;;;16.45;15.05;;;13.60;99.90;;;;;;5992320;23;20194;-80
2022/03/31 11:33:10;;;;;;;16.10;14.70;;;13.60;99.90;;;;;;6000480;23;20190;-80
2022/03/31 11:35:39;;;;;;;17.40;15.80;;;13.30;99.90;;;;;;5998213;23;20206;-80
2022/03/31 11:38:11;;;;;;;16.92;15.32;;;13.20;99.90;;;;;;5978439;23;20737;-79
2022/03/31 11:40:41;;;;;;;16.40;14.80;;;13.20;99.90;;;;;;5985464;23;20194;-80
2022/03/31 11:43:10;;;;;;;18.13;16.42;;;13.10;99.90;;;;;;5987571;23;20187;-80
2022/03/31 11:45:39;;;;;;;17.70;15.82;;;13.10;99.90;;;;;;5990783;23;20285;-79
2022/03/31 11:48:08;;;;;;;15.80;14.30;;;13.00;99.90;;;;;;5992645;23;20214;-80
2022/03/31 11:50:36;;;;;;;16.70;15.20;;;13.00;99.90;;;;;;5999889;23;20245;-78
2022/03/31 11:53:16;;;;;;;17.92;16.15;;;12.90;99.90;;;;;;6000995;23;20218;-79
2022/03/31 11:55:44;;;;;;;17.77;16.02;;;12.80;99.90;;;;;;5991974;23;20213;-80
2022/03/31 11:58:10;;;;;;;17.83;16.00;;;12.80;99.90;;;;;;6000692;23;20186;-80
2022/03/31 12:00:48;;;;;;;17.92;16.02;;;12.80;99.90;;;;;;5990106;23;20193;-80
2022/03/31 12:03:17;;;;;;;17.80;16.00;;;12.80;99.90;;;;;;6003744;23;20190;-79
2022/03/31 12:05:44;;;;;;;18.45;16.75;;;12.70;99.90;;;;;;5993204;23;20572;-80
2022/03/31 12:08:13;;;;;;;17.88;16.17;;;12.70;99.90;;;;;;5992614;23;20218;-80
2022/03/31 12:10:40;;;;;;;16.38;14.82;;;12.60;99.90;;;;;;5987173;23;20217;-80
2022/03/31 12:13:07;;;;;;;17.73;16.13;;;12.60;99.90;;;;;;5983448;23;20262;-80
2022/03/31 12:15:34;;;;;;;17.83;16.23;;;12.70;99.90;;;;;;6002795;23;20229;-80
2022/03/31 12:18:05;;;;;;;17.92;16.23;;;12.70;99.90;;;;;;5999954;23;20193;-80
2022/03/31 12:20:34;;;;;;;15.55;14.05;;;12.80;99.90;;;;;;6003719;23;20253;-81
2022/03/31 12:23:02;;;;;;;16.92;15.32;;;12.80;99.90;;;;;;5993496;23;20194;-80
2022/03/31 12:25:40;;;;;;;18.63;16.92;;;12.80;99.90;;;;;;5984098;23;20234;-80
2022/03/31 12:28:08;;;;;;;16.30;14.80;;;12.80;99.90;;;;;;6000064;23;20713;-80
2022/03/31 12:30:43;;;;;;;16.40;14.88;;;12.90;99.90;;;;;;6001895;23;20198;-80
2022/03/31 12:33:18;;;;;;;17.23;15.65;;;12.90;99.90;;;;;;5989796;23;20221;-81
2022/03/31 12:35:57;;;;;;;17.15;15.45;;;12.80;99.90;;;;;;5990865;23;20349;-80
2022/03/31 12:38:44;;;;;;;17.23;15.68;;;12.80;99.90;;;;;;5992775;23;21621;-81
2022/03/31 12:41:23;;;;;;;17.30;15.80;;;12.80;99.90;;;;;;5992575;23;20190;-81
2022/03/31 12:44:05;;;;;;;18.00;16.15;;;12.80;99.90;;;;;;5988925;23;20277;-92
2022/03/31 12:46:34;;;;;;;16.55;15.05;;;12.80;99.90;;;;;;6003828;23;20210;-85